createdAt,value
2023-03-18T00:00:26.375Z,7.90
2023-03-18T00:01:28.360Z,7.90
2023-03-18T00:02:30.168Z,7.90
2023-03-18T00:03:33.205Z,7.90
2023-03-18T00:04:35.479Z,7.90
2023-03-18T00:05:38.452Z,7.90
2023-03-18T00:06:40.728Z,7.80
2023-03-18T00:07:43.014Z,7.80
2023-03-18T00:08:47.356Z,7.80
2023-03-18T00:09:49.196Z,7.80
2023-03-18T00:10:51.217Z,7.80
2023-03-18T00:11:54.029Z,7.80
2023-03-18T00:12:56.773Z,7.80
2023-03-18T00:14:00.394Z,7.80
2023-03-18T00:15:02.777Z,7.80
2023-03-18T00:16:06.884Z,7.80
2023-03-18T00:17:10.074Z,7.70
2023-03-18T00:18:13.042Z,7.70
2023-03-18T00:19:15.086Z,7.70
2023-03-18T00:20:18.897Z,7.70
2023-03-18T00:21:20.790Z,7.70
2023-03-18T00:22:22.860Z,7.70
2023-03-18T00:23:26.226Z,7.70
2023-03-18T00:24:28.381Z,7.70
2023-03-18T00:25:30.171Z,7.70
2023-03-18T00:26:32.625Z,7.70
2023-03-18T00:27:35.877Z,7.70
2023-03-18T00:28:38.603Z,7.70
2023-03-18T00:29:40.712Z,7.60
2023-03-18T00:30:42.802Z,7.60
2023-03-18T00:31:44.915Z,7.60
2023-03-18T00:32:47.396Z,7.60
2023-03-18T00:33:50.573Z,7.60
2023-03-18T00:34:53.707Z,7.60
2023-03-18T00:35:55.778Z,7.70
2023-03-18T00:36:57.914Z,7.60
2023-03-18T00:38:00.489Z,7.60
2023-03-18T00:39:03.714Z,7.60
2023-03-18T00:40:10.600Z,7.60
2023-03-18T00:41:15.700Z,7.60
2023-03-18T00:42:17.585Z,7.60
2023-03-18T00:43:22.682Z,7.60
2023-03-18T00:44:28.514Z,7.60
2023-03-18T00:45:30.291Z,7.60
2023-03-18T00:46:35.718Z,7.60
2023-03-18T00:47:38.554Z,7.60
2023-03-18T00:48:40.767Z,7.60
2023-03-18T00:49:42.842Z,7.60
2023-03-18T00:50:45.542Z,7.60
2023-03-18T00:51:48.226Z,7.60
2023-03-18T00:52:50.591Z,7.60
2023-03-18T00:53:59.289Z,7.60
2023-03-18T00:55:02.687Z,7.60
2023-03-18T00:56:05.856Z,7.60
2023-03-18T00:57:08.242Z,7.60
2023-03-18T00:58:11.694Z,7.60
2023-03-18T00:59:15.179Z,7.60
2023-03-18T01:00:18.596Z,7.60
2023-03-18T01:01:22.682Z,7.60
2023-03-18T01:02:25.442Z,7.60
2023-03-18T01:03:27.950Z,7.60
2023-03-18T01:04:30.919Z,7.60
2023-03-18T01:05:36.213Z,7.60
2023-03-18T01:06:39.602Z,7.60
2023-03-18T01:07:41.625Z,7.60
2023-03-18T01:08:43.994Z,7.60
2023-03-18T01:09:45.804Z,7.50
2023-03-18T01:10:48.876Z,7.50
2023-03-18T01:11:51.014Z,7.50
2023-03-18T01:12:55.980Z,7.50
2023-03-18T01:14:02.774Z,7.50
2023-03-18T01:15:14.496Z,7.50
2023-03-18T01:16:18.078Z,7.50
2023-03-18T01:17:21.258Z,7.50
2023-03-18T01:18:26.223Z,7.50
2023-03-18T01:19:29.655Z,7.50
2023-03-18T01:20:32.934Z,7.50
2023-03-18T01:21:36.070Z,7.50
2023-03-18T01:22:42.821Z,7.50
2023-03-18T01:23:45.642Z,7.50
2023-03-18T01:24:48.286Z,7.50
2023-03-18T01:25:52.417Z,7.50
2023-03-18T01:28:22.394Z,7.50
2023-03-18T01:29:25.302Z,7.50
2023-03-18T01:30:28.602Z,7.50
2023-03-18T01:31:30.715Z,7.40
2023-03-18T01:32:32.958Z,7.40
2023-03-18T01:33:35.714Z,7.40
2023-03-18T01:34:37.619Z,7.50
2023-03-18T01:35:40.726Z,7.50
2023-03-18T01:36:43.795Z,7.50
2023-03-18T01:37:47.185Z,7.50
2023-03-18T01:38:49.039Z,7.50
2023-03-18T01:39:50.942Z,7.50
2023-03-18T01:40:54.642Z,7.40
2023-03-18T01:41:57.607Z,7.40
2023-03-18T01:43:12.765Z,7.40
2023-03-18T01:44:25.240Z,7.40
2023-03-18T01:45:30.246Z,7.40
2023-03-18T01:46:44.791Z,7.40
2023-03-18T01:47:49.210Z,7.40
2023-03-18T01:48:52.621Z,7.40
2023-03-18T01:49:59.672Z,7.40
2023-03-18T01:51:10.482Z,7.40
2023-03-18T01:52:27.978Z,7.40
2023-03-18T01:53:36.554Z,7.40
2023-03-18T01:54:45.769Z,7.40
2023-03-18T01:55:51.139Z,7.40
2023-03-18T01:56:54.923Z,7.40
2023-03-18T01:57:59.202Z,7.40
2023-03-18T01:59:03.109Z,7.40
2023-03-18T02:00:09.407Z,7.30
2023-03-18T02:01:37.766Z,7.30
2023-03-18T02:02:43.587Z,7.30
2023-03-18T02:03:50.144Z,7.30
2023-03-18T02:04:54.888Z,7.30
2023-03-18T02:05:57.103Z,7.40
2023-03-18T02:06:59.985Z,7.40
2023-03-18T02:08:01.766Z,7.30
2023-03-18T02:09:04.099Z,7.30
2023-03-18T02:10:11.095Z,7.30
2023-03-18T02:11:13.538Z,7.30
2023-03-18T02:12:21.961Z,7.30
2023-03-18T02:13:24.831Z,7.30
2023-03-18T02:14:27.017Z,7.30
2023-03-18T02:15:30.247Z,7.30
2023-03-18T02:16:40.370Z,7.30
2023-03-18T02:17:46.897Z,7.30
2023-03-18T02:18:54.131Z,7.20
2023-03-18T02:20:21.081Z,7.20
2023-03-18T02:21:25.889Z,7.20
2023-03-18T02:22:34.297Z,7.20
2023-03-18T02:23:42.755Z,7.20
2023-03-18T02:25:02.704Z,7.20
2023-03-18T02:26:28.818Z,7.20
2023-03-18T02:27:35.414Z,7.20
2023-03-18T02:28:38.564Z,7.20
2023-03-18T02:29:42.263Z,7.20
2023-03-18T02:30:48.636Z,7.20
2023-03-18T02:31:51.558Z,7.20
2023-03-18T02:32:55.239Z,7.20
2023-03-18T02:33:58.947Z,7.20
2023-03-18T02:35:04.258Z,7.20
2023-03-18T02:36:13.566Z,7.20
2023-03-18T02:37:15.425Z,7.20
2023-03-18T02:38:17.180Z,7.20
2023-03-18T02:39:19.271Z,7.20
2023-03-18T02:40:28.439Z,7.20
2023-03-18T02:41:34.726Z,7.20
2023-03-18T02:42:37.700Z,7.20
2023-03-18T02:43:39.488Z,7.20
2023-03-18T02:44:44.721Z,7.20
2023-03-18T02:46:23.363Z,7.20
2023-03-18T02:47:28.728Z,7.20
2023-03-18T02:48:37.641Z,7.20
2023-03-18T02:49:39.476Z,7.20
2023-03-18T02:50:42.404Z,7.20
2023-03-18T02:51:44.703Z,7.20
2023-03-18T02:52:46.467Z,7.20
2023-03-18T02:53:48.953Z,7.10
2023-03-18T02:54:51.497Z,7.10
2023-03-18T02:55:53.348Z,7.10
2023-03-18T02:56:55.981Z,7.10
2023-03-18T02:57:57.745Z,7.10
2023-03-18T02:58:59.480Z,7.10
2023-03-18T03:00:01.445Z,7.10
2023-03-18T03:01:04.639Z,7.10
2023-03-18T03:02:06.716Z,7.10
2023-03-18T03:03:08.686Z,7.10
2023-03-18T03:04:12.212Z,7.10
2023-03-18T03:05:13.978Z,7.10
2023-03-18T03:06:15.844Z,7.10
2023-03-18T03:07:17.558Z,7.10
2023-03-18T03:08:19.476Z,7.10
2023-03-18T03:09:22.709Z,7.10
2023-03-18T03:10:24.563Z,7.10
2023-03-18T03:11:27.301Z,7.10
2023-03-18T03:12:29.274Z,7.10
2023-03-18T03:13:31.154Z,7.10
2023-03-18T03:14:32.936Z,7.10
2023-03-18T03:15:35.234Z,7.10
2023-03-18T03:16:37.822Z,7.10
2023-03-18T03:17:39.751Z,7.10
2023-03-18T03:18:42.609Z,7.00
2023-03-18T03:19:45.824Z,7.00
2023-03-18T03:20:48.135Z,7.00
2023-03-18T03:21:50.290Z,7.00
2023-03-18T03:22:53.253Z,7.00
2023-03-18T03:23:55.160Z,7.00
2023-03-18T03:24:56.889Z,7.00
2023-03-18T03:25:59.073Z,7.00
2023-03-18T03:27:01.058Z,7.00
2023-03-18T03:28:03.995Z,7.00
2023-03-18T03:29:06.771Z,7.00
2023-03-18T03:30:11.722Z,7.00
2023-03-18T03:31:14.190Z,7.00
2023-03-18T03:32:16.006Z,7.00
2023-03-18T03:33:17.769Z,7.00
2023-03-18T03:34:19.611Z,7.00
2023-03-18T03:35:22.368Z,7.00
2023-03-18T03:36:24.160Z,7.00
2023-03-18T03:37:25.950Z,7.00
2023-03-18T03:38:27.771Z,7.00
2023-03-18T03:39:29.561Z,6.90
2023-03-18T03:40:31.534Z,6.90
2023-03-18T03:41:33.956Z,6.90
2023-03-18T03:42:35.809Z,6.90
2023-03-18T03:43:39.087Z,6.90
2023-03-18T03:44:40.942Z,6.90
2023-03-18T03:45:46.466Z,6.90
2023-03-18T03:46:48.640Z,6.90
2023-03-18T03:47:51.371Z,6.90
2023-03-18T03:48:53.091Z,6.90
2023-03-18T03:49:54.879Z,6.90
2023-03-18T03:50:57.287Z,6.90
2023-03-18T03:51:59.273Z,6.90
2023-03-18T03:53:02.495Z,6.90
2023-03-18T03:54:04.423Z,6.90
2023-03-18T03:55:12.300Z,6.90
2023-03-18T03:56:14.123Z,6.90
2023-03-18T03:57:16.257Z,6.90
2023-03-18T03:58:18.625Z,6.90
2023-03-18T03:59:20.456Z,6.90
2023-03-18T04:00:24.099Z,6.90
2023-03-18T04:01:27.259Z,6.90
2023-03-18T04:02:29.090Z,6.90
2023-03-18T04:03:30.845Z,6.90
2023-03-18T04:04:32.678Z,6.90
2023-03-18T04:05:34.527Z,6.90
2023-03-18T04:06:36.719Z,6.80
2023-03-18T04:07:39.761Z,6.80
2023-03-18T04:08:41.612Z,6.80
2023-03-18T04:09:43.338Z,6.80
2023-03-18T04:10:45.110Z,6.80
2023-03-18T04:11:46.854Z,6.80
2023-03-18T04:12:49.684Z,6.80
2023-03-18T04:13:51.465Z,6.80
2023-03-18T04:14:53.213Z,6.80
2023-03-18T04:15:54.992Z,6.80
2023-03-18T04:16:58.173Z,6.80
2023-03-18T04:18:04.933Z,6.80
2023-03-18T04:19:07.225Z,6.80
2023-03-18T04:20:09.704Z,6.70
2023-03-18T04:21:11.537Z,6.70
2023-03-18T04:22:13.323Z,6.70
2023-03-18T04:23:15.607Z,6.70
2023-03-18T04:24:17.648Z,6.70
2023-03-18T04:25:19.412Z,6.70
2023-03-18T04:26:21.155Z,6.70
2023-03-18T04:27:22.894Z,6.70
2023-03-18T04:28:24.980Z,6.70
2023-03-18T04:29:26.788Z,6.70
2023-03-18T04:30:28.582Z,6.70
2023-03-18T04:31:31.915Z,6.70
2023-03-18T04:32:33.920Z,6.70
2023-03-18T04:33:35.916Z,6.70
2023-03-18T04:34:38.537Z,6.70
2023-03-18T04:35:42.741Z,6.70
2023-03-18T04:36:44.583Z,6.60
2023-03-18T04:37:46.537Z,6.60
2023-03-18T04:38:48.246Z,6.60
2023-03-18T04:39:50.285Z,6.60
2023-03-18T04:40:52.780Z,6.60
2023-03-18T04:41:56.980Z,6.60
2023-03-18T04:42:58.744Z,6.60
2023-03-18T04:44:00.542Z,6.60
2023-03-18T04:45:02.496Z,6.60
2023-03-18T04:46:04.343Z,6.50
2023-03-18T04:47:07.895Z,6.50
2023-03-18T04:48:10.338Z,6.50
2023-03-18T04:49:12.901Z,6.50
2023-03-18T04:50:15.160Z,6.50
2023-03-18T04:51:16.924Z,6.50
2023-03-18T04:52:18.681Z,6.50
2023-03-18T04:53:20.586Z,6.50
2023-03-18T04:54:22.486Z,6.50
2023-03-18T04:55:24.545Z,6.50
2023-03-18T04:56:26.441Z,6.50
2023-03-18T04:57:28.571Z,6.50
2023-03-18T04:58:30.850Z,6.40
2023-03-18T04:59:32.703Z,6.40
2023-03-18T05:00:34.924Z,6.40
2023-03-18T05:01:36.701Z,6.40
2023-03-18T05:02:39.890Z,6.40
2023-03-18T05:03:42.145Z,6.40
2023-03-18T05:04:43.990Z,6.40
2023-03-18T05:05:45.756Z,6.40
2023-03-18T05:06:47.521Z,6.40
2023-03-18T05:07:49.285Z,6.40
2023-03-18T05:08:51.409Z,6.30
2023-03-18T05:09:53.165Z,6.30
2023-03-18T05:10:54.925Z,6.30
2023-03-18T05:11:56.798Z,6.30
2023-03-18T05:12:58.633Z,6.30
2023-03-18T05:14:00.489Z,6.30
2023-03-18T05:15:02.493Z,6.30
2023-03-18T05:16:04.909Z,6.30
2023-03-18T05:17:06.804Z,6.30
2023-03-18T05:18:08.870Z,6.30
2023-03-18T05:19:10.830Z,6.30
2023-03-18T05:20:13.496Z,6.30
2023-03-18T05:21:15.654Z,6.30
2023-03-18T05:22:20.339Z,6.30
2023-03-18T05:23:22.548Z,6.30
2023-03-18T05:24:24.322Z,6.20
2023-03-18T05:25:26.281Z,6.20
2023-03-18T05:26:28.101Z,6.20
2023-03-18T05:27:29.979Z,6.20
2023-03-18T05:28:32.834Z,6.20
2023-03-18T05:29:34.689Z,6.20
2023-03-18T05:30:39.339Z,6.20
2023-03-18T05:31:41.168Z,6.20
2023-03-18T05:32:43.449Z,6.20
2023-03-18T05:33:46.151Z,6.20
2023-03-18T05:34:47.933Z,6.20
2023-03-18T05:35:49.884Z,6.20
2023-03-18T05:36:52.131Z,6.20
2023-03-18T05:37:53.878Z,6.20
2023-03-18T05:38:56.050Z,6.20
2023-03-18T05:39:57.820Z,6.20
2023-03-18T05:40:59.646Z,6.10
2023-03-18T05:42:02.242Z,6.10
2023-03-18T05:43:04.410Z,6.10
2023-03-18T05:44:06.261Z,6.10
2023-03-18T05:45:08.467Z,6.10
2023-03-18T05:46:10.230Z,6.10
2023-03-18T05:47:12.466Z,6.10
2023-03-18T05:48:14.471Z,6.00
2023-03-18T05:49:16.760Z,6.10
2023-03-18T05:50:35.502Z,6.00
2023-03-18T05:51:38.027Z,6.10
2023-03-18T05:52:39.771Z,6.10
2023-03-18T05:53:41.535Z,6.10
2023-03-18T05:54:43.554Z,6.10
2023-03-18T05:55:45.422Z,6.10
2023-03-18T05:56:47.246Z,6.10
2023-03-18T05:57:49.027Z,6.10
2023-03-18T05:58:52.079Z,6.10
2023-03-18T05:59:53.818Z,6.10
2023-03-18T06:00:56.065Z,6.10
2023-03-18T06:01:57.865Z,6.10
2023-03-18T06:03:01.228Z,6.10
2023-03-18T06:04:03.488Z,6.10
2023-03-18T06:05:05.618Z,6.10
2023-03-18T06:06:08.785Z,6.10
2023-03-18T06:07:12.103Z,6.10
2023-03-18T06:08:14.743Z,6.10
2023-03-18T06:09:17.392Z,6.10
2023-03-18T06:10:19.682Z,6.10
2023-03-18T06:11:21.825Z,6.10
2023-03-18T06:12:27.302Z,6.10
2023-03-18T06:13:29.107Z,6.10
2023-03-18T06:14:31.376Z,6.10
2023-03-18T06:15:33.610Z,6.10
2023-03-18T06:16:36.160Z,6.10
2023-03-18T06:17:38.378Z,6.10
2023-03-18T06:18:40.662Z,6.10
2023-03-18T06:19:42.768Z,6.10
2023-03-18T06:20:44.487Z,6.20
2023-03-18T06:21:46.649Z,6.20
2023-03-18T06:22:51.828Z,6.20
2023-03-18T06:23:54.677Z,6.20
2023-03-18T06:24:56.536Z,6.20
2023-03-18T06:25:58.372Z,6.20
2023-03-18T06:27:00.238Z,6.20
2023-03-18T06:28:01.980Z,6.20
2023-03-18T06:29:05.287Z,6.20
2023-03-18T06:30:07.563Z,6.30
2023-03-18T06:31:10.761Z,6.30
2023-03-18T06:32:12.693Z,6.30
2023-03-18T06:33:15.255Z,6.30
2023-03-18T06:34:17.079Z,6.30
2023-03-18T06:35:19.178Z,6.30
2023-03-18T06:36:21.645Z,6.30
2023-03-18T06:37:23.510Z,6.40
2023-03-18T06:38:25.524Z,6.40
2023-03-18T06:39:28.582Z,6.40
2023-03-18T06:40:30.393Z,6.40
2023-03-18T06:41:32.105Z,6.40
2023-03-18T06:42:34.574Z,6.50
2023-03-18T06:43:36.303Z,6.50
2023-03-18T06:44:38.144Z,6.50
2023-03-18T06:45:40.417Z,6.50
2023-03-18T06:46:43.991Z,6.60
2023-03-18T06:47:46.599Z,6.60
2023-03-18T06:48:48.895Z,6.60
2023-03-18T06:49:51.388Z,6.60
2023-03-18T06:50:54.367Z,6.60
2023-03-18T06:51:56.430Z,6.70
2023-03-18T06:52:59.282Z,6.70
2023-03-18T06:54:01.122Z,6.70
2023-03-18T06:55:04.797Z,6.80
2023-03-18T06:56:07.869Z,6.80
2023-03-18T06:57:09.626Z,6.80
2023-03-18T06:58:12.011Z,6.80
2023-03-18T06:59:13.879Z,6.90
2023-03-18T07:00:16.677Z,6.90
2023-03-18T07:01:19.590Z,6.90
2023-03-18T07:02:23.639Z,7.00
2023-03-18T07:03:26.170Z,7.00
2023-03-18T07:04:28.155Z,7.10
2023-03-18T07:05:30.686Z,7.10
2023-03-18T07:06:32.751Z,7.10
2023-03-18T07:07:34.608Z,7.20
2023-03-18T07:08:36.943Z,7.20
2023-03-18T07:09:39.034Z,7.30
2023-03-18T07:10:40.795Z,7.30
2023-03-18T07:11:44.204Z,7.40
2023-03-18T07:12:47.924Z,7.40
2023-03-18T07:13:49.674Z,7.50
2023-03-18T07:14:53.427Z,7.50
2023-03-18T07:15:56.695Z,7.60
2023-03-18T07:16:58.924Z,7.60
2023-03-18T07:18:00.727Z,7.60
2023-03-18T07:19:02.957Z,7.70
2023-03-18T07:20:05.509Z,7.80
2023-03-18T07:21:07.381Z,7.80
2023-03-18T07:22:09.242Z,7.80
2023-03-18T07:23:11.379Z,7.90
2023-03-18T07:24:14.215Z,8.00
2023-03-18T07:25:16.133Z,8.00
2023-03-18T07:26:18.694Z,8.10
2023-03-18T07:27:20.650Z,8.10
2023-03-18T07:28:22.438Z,8.20
2023-03-18T07:29:24.361Z,8.20
2023-03-18T07:30:27.466Z,8.30
2023-03-18T07:31:30.392Z,8.40
2023-03-18T07:32:32.447Z,8.40
2023-03-18T07:33:34.620Z,8.50
2023-03-18T07:34:36.535Z,8.60
2023-03-18T07:35:41.049Z,8.60
2023-03-18T07:36:43.062Z,8.70
2023-03-18T07:37:45.055Z,8.80
2023-03-18T07:38:47.020Z,8.80
2023-03-18T07:39:48.789Z,8.80
2023-03-18T07:40:50.683Z,8.80
2023-03-18T07:41:52.471Z,8.90
2023-03-18T07:42:54.191Z,8.90
2023-03-18T07:43:56.029Z,8.90
2023-03-18T07:44:58.047Z,8.90
2023-03-18T07:45:59.925Z,9.00
2023-03-18T07:47:01.714Z,9.00
2023-03-18T07:48:03.527Z,9.10
2023-03-18T07:49:05.253Z,9.10
2023-03-18T07:50:07.689Z,9.10
2023-03-18T07:51:09.530Z,9.10
2023-03-18T07:52:12.269Z,9.10
2023-03-18T07:53:16.590Z,9.10
2023-03-18T07:54:18.612Z,9.20
2023-03-18T07:55:20.419Z,9.20
2023-03-18T07:56:22.492Z,9.20
2023-03-18T07:57:24.398Z,9.20
2023-03-18T07:58:26.649Z,9.30
2023-03-18T07:59:28.358Z,9.30
2023-03-18T08:00:30.911Z,9.30
2023-03-18T08:01:33.080Z,9.40
2023-03-18T08:02:36.204Z,9.40
2023-03-18T08:03:38.439Z,9.50
2023-03-18T08:04:40.975Z,9.50
2023-03-18T08:05:42.716Z,9.50
2023-03-18T08:06:45.033Z,9.50
2023-03-18T08:07:46.811Z,9.60
2023-03-18T08:08:49.290Z,9.60
2023-03-18T08:09:51.199Z,9.60
2023-03-18T08:10:59.811Z,9.60
2023-03-18T08:12:01.652Z,9.60
2023-03-18T08:13:04.008Z,9.60
2023-03-18T08:14:05.789Z,9.70
2023-03-18T08:15:09.247Z,9.70
2023-03-18T08:16:12.226Z,9.70
2023-03-18T08:17:14.699Z,9.70
2023-03-18T08:18:16.433Z,9.80
2023-03-18T08:19:18.179Z,9.80
2023-03-18T08:20:20.440Z,9.80
2023-03-18T08:21:22.236Z,9.90
2023-03-18T08:22:25.566Z,9.90
2023-03-18T08:23:27.852Z,9.90
2023-03-18T08:24:30.010Z,9.90
2023-03-18T08:25:32.787Z,10.00
2023-03-18T08:26:34.723Z,10.00
2023-03-18T08:27:36.482Z,10.10
2023-03-18T08:28:38.560Z,10.10
2023-03-18T08:29:40.403Z,10.10
2023-03-18T08:30:42.164Z,10.20
2023-03-18T08:31:44.062Z,10.20
2023-03-18T08:32:46.475Z,10.30
2023-03-18T08:33:49.466Z,10.30
2023-03-18T08:34:51.339Z,10.40
2023-03-18T08:35:54.666Z,10.50
2023-03-18T08:36:56.511Z,10.60
2023-03-18T08:37:58.249Z,10.60
2023-03-18T08:39:00.133Z,10.70
2023-03-18T08:40:02.116Z,10.80
2023-03-18T08:41:04.026Z,10.80
2023-03-18T08:42:06.289Z,10.80
2023-03-18T08:43:09.185Z,10.90
2023-03-18T08:44:11.384Z,11.00
2023-03-18T08:45:13.567Z,11.00
2023-03-18T08:46:15.355Z,11.10
2023-03-18T08:47:17.109Z,11.20
2023-03-18T08:48:18.822Z,11.20
2023-03-18T08:49:20.650Z,11.30
2023-03-18T08:50:24.710Z,11.30
2023-03-18T08:51:26.883Z,11.40
2023-03-18T08:52:28.650Z,11.40
2023-03-18T08:53:30.837Z,11.50
2023-03-18T08:54:32.770Z,11.60
2023-03-18T08:55:39.812Z,11.60
2023-03-18T08:56:41.607Z,11.70
2023-03-18T08:57:43.472Z,11.70
2023-03-18T08:58:46.047Z,11.70
2023-03-18T08:59:48.140Z,11.80
2023-03-18T09:00:50.472Z,11.80
2023-03-18T09:01:53.211Z,12.00
2023-03-18T09:02:55.101Z,12.00
2023-03-18T09:03:58.697Z,12.10
2023-03-18T09:05:00.470Z,12.10
2023-03-18T09:06:03.333Z,12.20
2023-03-18T09:07:05.099Z,12.20
2023-03-18T09:08:07.096Z,12.30
2023-03-18T09:09:08.902Z,12.40
2023-03-18T09:10:12.973Z,12.40
2023-03-18T09:11:14.918Z,12.50
2023-03-18T09:12:16.680Z,12.40
2023-03-18T09:13:18.395Z,12.50
2023-03-18T09:14:20.222Z,12.50
2023-03-18T09:15:22.474Z,12.60
2023-03-18T09:16:24.424Z,12.70
2023-03-18T09:17:43.862Z,12.70
2023-03-18T09:18:48.956Z,12.70
2023-03-18T09:19:50.993Z,12.80
2023-03-18T09:20:52.708Z,12.80
2023-03-18T09:21:54.452Z,12.90
2023-03-18T09:22:56.358Z,12.90
2023-03-18T09:23:59.043Z,12.90
2023-03-18T09:25:00.864Z,13.00
2023-03-18T09:26:03.602Z,13.00
2023-03-18T09:27:05.598Z,13.10
2023-03-18T09:28:07.673Z,13.20
2023-03-18T09:29:10.354Z,13.30
2023-03-18T09:30:12.881Z,13.40
2023-03-18T09:31:15.520Z,13.50
2023-03-18T09:32:17.865Z,13.50
2023-03-18T09:33:20.729Z,13.50
2023-03-18T09:34:22.687Z,13.60
2023-03-18T09:35:25.037Z,13.70
2023-03-18T09:36:27.268Z,13.80
2023-03-18T09:37:29.111Z,13.80
2023-03-18T09:38:31.598Z,13.90
2023-03-18T09:39:33.300Z,13.90
2023-03-18T09:40:38.616Z,13.90
2023-03-18T09:42:10.250Z,14.00
2023-03-18T09:43:36.721Z,14.10
2023-03-18T09:44:39.026Z,14.10
2023-03-18T09:46:18.482Z,14.10
2023-03-18T09:47:45.600Z,14.20
2023-03-18T09:49:11.371Z,14.20
2023-03-18T09:50:39.392Z,14.30
2023-03-18T09:51:50.702Z,14.30
2023-03-18T09:53:21.877Z,14.40
2023-03-18T09:54:44.704Z,14.40
2023-03-18T09:55:56.029Z,14.40
2023-03-18T09:56:59.264Z,14.40
2023-03-18T09:58:03.991Z,14.40
2023-03-18T09:59:28.770Z,14.40
2023-03-18T10:00:34.493Z,14.40
2023-03-18T10:01:38.534Z,14.40
2023-03-18T10:03:10.889Z,14.40
2023-03-18T10:04:41.055Z,14.40
2023-03-18T10:06:02.328Z,14.40
2023-03-18T10:07:12.619Z,14.40
2023-03-18T10:08:31.071Z,14.40
2023-03-18T10:09:45.910Z,14.40
2023-03-18T10:10:48.923Z,14.40
2023-03-18T10:11:53.874Z,14.50
2023-03-18T10:13:22.265Z,14.50
2023-03-18T10:14:27.107Z,14.50
2023-03-18T10:15:41.377Z,14.40
2023-03-18T10:17:18.322Z,14.40
2023-03-18T10:18:29.469Z,14.40
2023-03-18T10:19:32.348Z,14.40
2023-03-18T10:20:46.470Z,14.40
2023-03-18T10:22:00.243Z,14.40
2023-03-18T10:23:24.348Z,14.40
2023-03-18T10:24:47.696Z,14.40
2023-03-18T10:25:55.958Z,14.50
2023-03-18T10:27:17.929Z,14.50
2023-03-18T10:28:57.361Z,14.50
2023-03-18T10:30:22.314Z,14.60
2023-03-18T10:31:32.439Z,14.70
2023-03-18T10:32:58.953Z,14.70
2023-03-18T10:34:13.205Z,14.80
2023-03-18T10:35:24.195Z,14.80
2023-03-18T10:36:49.993Z,14.90
2023-03-18T10:38:00.183Z,14.90
2023-03-18T10:39:03.740Z,15.00
2023-03-18T10:40:17.704Z,15.00
2023-03-18T10:41:26.439Z,15.10
2023-03-18T10:42:31.827Z,15.10
2023-03-18T10:43:35.202Z,15.20
2023-03-18T10:44:40.920Z,15.20
2023-03-18T10:45:44.433Z,15.20
2023-03-18T10:47:23.677Z,15.20
2023-03-18T10:48:33.473Z,15.30
2023-03-18T10:49:38.886Z,15.30
2023-03-18T10:51:12.547Z,15.30
2023-03-18T10:52:34.838Z,15.40
2023-03-18T10:53:45.491Z,15.40
2023-03-18T10:54:50.582Z,15.40
2023-03-18T10:56:10.453Z,15.50
2023-03-18T10:57:16.940Z,15.40
2023-03-18T10:58:20.010Z,15.50
2023-03-18T10:59:24.755Z,15.40
2023-03-18T11:00:35.616Z,15.40
2023-03-18T11:01:39.369Z,15.40
2023-03-18T11:02:41.511Z,15.40
2023-03-18T11:04:15.157Z,15.40
2023-03-18T11:05:31.832Z,15.40
2023-03-18T11:07:02.707Z,15.40
2023-03-18T11:08:28.306Z,15.30
2023-03-18T11:09:39.528Z,15.30
2023-03-18T11:10:46.123Z,15.40
2023-03-18T11:11:56.384Z,15.60
2023-03-18T11:13:02.730Z,15.60
2023-03-18T11:14:07.224Z,15.70
2023-03-18T11:15:11.878Z,15.80
2023-03-18T11:16:23.920Z,15.80
2023-03-18T11:17:32.220Z,15.90
2023-03-18T11:18:34.710Z,15.90
2023-03-18T11:19:47.737Z,15.90
2023-03-18T11:21:03.569Z,15.90
2023-03-18T11:22:11.876Z,15.90
2023-03-18T11:23:49.096Z,16.00
2023-03-18T11:25:14.993Z,16.00
2023-03-18T11:26:24.826Z,16.00
2023-03-18T11:27:29.946Z,16.00
2023-03-18T11:28:33.264Z,16.00
2023-03-18T11:29:35.085Z,16.00
2023-03-18T11:30:56.385Z,16.00
2023-03-18T11:31:59.292Z,16.00
2023-03-18T11:33:05.874Z,16.00
2023-03-18T11:34:08.961Z,16.00
2023-03-18T11:35:20.304Z,16.00
2023-03-18T11:36:24.079Z,15.90
2023-03-18T11:37:37.823Z,16.00
2023-03-18T11:38:39.801Z,16.00
2023-03-18T11:39:41.711Z,16.10
2023-03-18T11:40:43.859Z,16.10
2023-03-18T11:41:47.071Z,16.00
2023-03-18T11:42:54.529Z,16.00
2023-03-18T11:44:07.497Z,15.90
2023-03-18T11:45:27.868Z,15.90
2023-03-18T11:46:45.701Z,15.80
2023-03-18T11:47:47.756Z,15.80
2023-03-18T11:48:49.854Z,15.70
2023-03-18T11:49:51.580Z,15.80
2023-03-18T11:51:18.251Z,15.80
2023-03-18T11:52:37.498Z,15.90
2023-03-18T11:54:00.608Z,15.90
2023-03-18T11:55:20.472Z,15.90
2023-03-18T11:56:35.445Z,15.90
2023-03-18T11:57:58.180Z,15.90
2023-03-18T11:59:05.826Z,16.00
2023-03-18T12:00:33.529Z,16.00
2023-03-18T12:01:41.333Z,16.10
2023-03-18T12:03:22.971Z,16.10
2023-03-18T12:04:48.867Z,16.10
2023-03-18T12:06:05.474Z,16.10
2023-03-18T12:07:48.385Z,16.20
2023-03-18T12:09:17.540Z,16.20
2023-03-18T12:10:26.179Z,16.20
2023-03-18T12:11:53.341Z,16.20
2023-03-18T12:13:02.089Z,16.20
2023-03-18T12:14:15.717Z,16.20
2023-03-18T12:15:17.366Z,16.20
2023-03-18T12:16:40.504Z,16.20
2023-03-18T12:17:51.126Z,16.20
2023-03-18T12:19:19.373Z,16.20
2023-03-18T12:20:44.232Z,16.10
2023-03-18T12:22:09.117Z,16.10
2023-03-18T12:23:37.537Z,16.10
2023-03-18T12:24:52.467Z,16.00
2023-03-18T12:26:05.315Z,15.90
2023-03-18T12:27:21.728Z,15.90
2023-03-18T12:29:09.666Z,15.80
2023-03-18T12:30:20.443Z,15.90
2023-03-18T12:31:35.316Z,15.80
2023-03-18T12:32:57.366Z,15.80
2023-03-18T12:34:11.100Z,15.80
2023-03-18T12:35:31.438Z,15.80
2023-03-18T12:36:49.113Z,15.80
2023-03-18T12:38:13.406Z,15.80
2023-03-18T12:39:31.177Z,15.80
2023-03-18T12:40:53.257Z,15.80
2023-03-18T12:42:10.260Z,15.80
2023-03-18T12:43:15.054Z,15.80
2023-03-18T12:44:36.541Z,15.80
2023-03-18T12:45:44.496Z,15.90
2023-03-18T12:46:52.120Z,15.90
2023-03-18T12:48:16.484Z,15.90
2023-03-18T12:49:42.160Z,15.90
2023-03-18T12:50:51.537Z,15.80
2023-03-18T12:52:02.871Z,15.70
2023-03-18T12:53:33.419Z,15.80
2023-03-18T12:55:07.585Z,15.80
2023-03-18T12:56:16.631Z,15.80
2023-03-18T12:57:33.150Z,15.80
2023-03-18T12:58:41.127Z,15.70
2023-03-18T12:59:51.240Z,15.80
2023-03-18T13:01:18.239Z,15.90
2023-03-18T13:02:46.930Z,16.00
2023-03-18T13:04:05.883Z,16.20
2023-03-18T13:05:35.055Z,16.30
2023-03-18T13:06:45.704Z,16.40
2023-03-18T13:08:05.482Z,16.50
2023-03-18T13:09:25.455Z,16.60
2023-03-18T13:10:31.451Z,16.70
2023-03-18T13:11:42.394Z,16.70
2023-03-18T13:12:47.037Z,16.70
2023-03-18T13:13:54.243Z,16.70
2023-03-18T13:15:12.638Z,16.70
2023-03-18T13:16:15.543Z,16.70
2023-03-18T13:17:36.205Z,16.70
2023-03-18T13:18:46.316Z,16.80
2023-03-18T13:19:48.251Z,16.80
2023-03-18T13:20:53.654Z,16.90
2023-03-18T13:22:32.054Z,16.90
2023-03-18T13:23:33.816Z,16.90
2023-03-18T13:25:17.835Z,16.90
2023-03-18T13:26:52.272Z,16.90
2023-03-18T13:28:18.041Z,17.00
2023-03-18T13:29:45.054Z,17.00
2023-03-18T13:31:05.734Z,17.00
2023-03-18T13:32:40.031Z,17.00
2023-03-18T13:34:09.495Z,17.00
2023-03-18T13:35:14.439Z,17.00
2023-03-18T13:36:19.274Z,17.10
2023-03-18T13:37:51.525Z,17.10
2023-03-18T13:39:18.053Z,17.20
2023-03-18T13:40:25.890Z,17.20
2023-03-18T13:41:56.885Z,17.30
2023-03-18T13:43:03.924Z,17.30
2023-03-18T13:44:19.252Z,17.30
2023-03-18T13:45:32.603Z,17.30
2023-03-18T13:46:35.013Z,17.40
2023-03-18T13:47:39.231Z,17.30
2023-03-18T13:48:41.465Z,17.30
2023-03-18T13:49:44.700Z,17.30
2023-03-18T13:50:48.856Z,17.40
2023-03-18T13:51:58.621Z,17.50
2023-03-18T13:53:02.615Z,17.50
2023-03-18T13:54:11.265Z,17.50
2023-03-18T13:55:27.656Z,17.50
2023-03-18T13:56:42.910Z,17.60
2023-03-18T13:58:11.886Z,17.60
2023-03-18T13:59:35.396Z,17.70
2023-03-18T14:00:42.137Z,17.70
2023-03-18T14:01:50.717Z,17.70
2023-03-18T14:03:16.398Z,17.70
2023-03-18T14:04:31.619Z,17.70
2023-03-18T14:05:35.555Z,17.70
2023-03-18T14:06:46.634Z,17.80
2023-03-18T14:07:49.524Z,17.80
2023-03-18T14:08:52.759Z,17.80
2023-03-18T14:10:17.346Z,17.70
2023-03-18T14:11:20.310Z,17.70
2023-03-18T14:12:32.671Z,17.70
2023-03-18T14:13:34.408Z,17.80
2023-03-18T14:14:57.428Z,17.70
2023-03-18T14:15:59.344Z,17.80
2023-03-18T14:17:01.660Z,17.80
2023-03-18T14:18:04.206Z,17.90
2023-03-18T14:19:19.342Z,17.90
2023-03-18T14:20:24.948Z,17.90
2023-03-18T14:21:29.067Z,18.00
2023-03-18T14:22:38.568Z,18.00
2023-03-18T14:24:00.423Z,18.00
2023-03-18T14:25:31.733Z,18.00
2023-03-18T14:26:33.777Z,18.00
2023-03-18T14:27:57.484Z,18.00
2023-03-18T14:29:05.244Z,18.10
2023-03-18T14:30:34.973Z,18.10
2023-03-18T14:31:39.770Z,18.10
2023-03-18T14:32:41.658Z,18.10
2023-03-18T14:34:02.956Z,18.10
2023-03-18T14:35:04.773Z,18.20
2023-03-18T14:36:10.402Z,18.10
2023-03-18T14:37:29.440Z,18.10
2023-03-18T14:38:49.699Z,18.10